Port Hueneme, California
Current Conditions -  °F | °C
As of 11:51 AM on Monday 22 Dec 2014 (Local Time) from KOXR Reporting Station
Clear Clear  
Wind Chill: 70°   Ceiling: Unl
Heat Index: 70°   Visibility: 10mi
Dew Point: 57°   Wind: 12mph
Humidity: 63%   Direction: 280°W
Pressure: 30"   Gusts: NA
Location:  34.15°N, 119.19°W
Report Text: KOXR 221951Z 28010KT 10SM CLR 21/14 A3000 RMK AO2 SLP157 T02110139
Loading
Personal Weather Stations






























Interactive Weather Map New forecast layout! Learn more

10-Day Weather Forecast

Advertisements
Track Severe Weather on mobile